createdAt,value
2019-05-22T00:02:28.953Z,27.87
2019-05-22T00:05:28.356Z,27.15
2019-05-22T00:07:50.575Z,25.80
2019-05-22T00:10:25.141Z,24.65
2019-05-22T00:12:54.725Z,28.27
2019-05-22T00:15:24.957Z,25.52
2019-05-22T00:17:54.435Z,26.85
2019-05-22T00:20:24.884Z,29.18
2019-05-22T00:22:53.903Z,25.50
2019-05-22T00:25:25.352Z,26.33
2019-05-22T00:27:55.050Z,26.45
2019-05-22T00:30:25.502Z,25.35
2019-05-22T00:32:54.123Z,25.30
2019-05-22T00:35:24.625Z,26.73
2019-05-22T00:37:54.657Z,26.55
2019-05-22T00:40:24.812Z,25.40
2019-05-22T00:43:03.473Z,24.98
2019-05-22T00:45:24.819Z,25.35
2019-05-22T00:47:54.594Z,28.23
2019-05-22T00:50:30.470Z,23.50
2019-05-22T00:53:01.364Z,25.92
2019-05-22T00:55:34.464Z,25.35
2019-05-22T00:58:04.995Z,26.33
2019-05-22T01:00:40.912Z,23.27
2019-05-22T01:03:11.042Z,25.32
2019-05-22T01:05:41.263Z,26.52
2019-05-22T01:08:11.742Z,29.32
2019-05-22T01:10:41.264Z,26.95
2019-05-22T01:13:09.962Z,23.12
2019-05-22T01:15:40.237Z,25.30
2019-05-22T01:18:10.641Z,24.87
2019-05-22T01:20:41.184Z,24.00
2019-05-22T01:23:12.057Z,26.57
2019-05-22T01:25:42.196Z,26.62
2019-05-22T01:28:10.798Z,24.18
2019-05-22T01:30:43.479Z,23.98
2019-05-22T01:33:23.078Z,28.35
2019-05-22T01:36:04.160Z,24.32
2019-05-22T01:38:33.801Z,26.02
2019-05-22T01:44:07.144Z,26.17
2019-05-22T01:46:36.651Z,25.17
2019-05-22T01:49:06.873Z,24.32
2019-05-22T01:51:35.966Z,24.47
2019-05-22T01:54:06.265Z,26.20
2019-05-22T01:56:35.942Z,24.02
2019-05-22T01:59:04.597Z,20.90
2019-05-22T02:01:33.163Z,25.10
2019-05-22T02:04:02.096Z,25.52
2019-05-22T02:06:30.539Z,23.07
2019-05-22T02:09:21.774Z,22.48
2019-05-22T02:11:54.405Z,23.35
2019-05-22T02:14:23.120Z,23.77
2019-05-22T02:16:57.254Z,26.55
2019-05-22T02:19:25.567Z,22.02
2019-05-22T02:21:55.250Z,22.95
2019-05-22T02:24:24.026Z,21.82
2019-05-22T02:26:52.994Z,22.70
2019-05-22T02:29:22.499Z,24.35
2019-05-22T02:31:55.120Z,23.75
2019-05-22T02:34:21.681Z,25.08
2019-05-22T02:36:52.157Z,21.05
2019-05-22T02:39:31.503Z,21.77
2019-05-22T02:42:15.531Z,22.22
2019-05-22T02:44:47.480Z,21.70
2019-05-22T02:47:20.466Z,23.92
2019-05-22T02:49:48.846Z,22.70
2019-05-22T02:52:17.374Z,20.45
2019-05-22T02:54:47.441Z,20.95
2019-05-22T02:57:16.250Z,24.82
2019-05-22T02:59:45.843Z,23.15
2019-05-22T03:02:16.253Z,24.43
2019-05-22T03:04:48.085Z,23.02
2019-05-22T03:07:16.617Z,23.18
2019-05-22T03:09:46.749Z,22.37
2019-05-22T03:12:17.192Z,23.55
2019-05-22T03:14:45.774Z,20.15
2019-05-22T03:17:24.708Z,20.20
2019-05-22T03:19:53.602Z,21.02
2019-05-22T03:22:31.612Z,23.32
2019-05-22T03:25:01.945Z,20.57
2019-05-22T03:27:38.942Z,21.80
2019-05-22T03:30:22.222Z,21.00
2019-05-22T03:32:52.163Z,24.07
2019-05-22T03:35:21.853Z,21.30
2019-05-22T03:37:51.765Z,22.42
2019-05-22T03:40:20.687Z,18.07
2019-05-22T03:42:50.942Z,26.62
2019-05-22T03:45:20.978Z,21.10
2019-05-22T03:47:50.840Z,19.60
2019-05-22T03:50:19.970Z,22.32
2019-05-22T03:52:49.132Z,25.32
2019-05-22T03:55:18.059Z,22.52
2019-05-22T03:57:46.695Z,22.87
2019-05-22T04:00:17.541Z,20.95
2019-05-22T04:02:49.265Z,26.95
2019-05-22T04:05:17.917Z,22.60
2019-05-22T04:07:48.074Z,23.65
2019-05-22T04:10:17.054Z,20.92
2019-05-22T04:12:45.527Z,24.50
2019-05-22T04:15:14.714Z,21.23
2019-05-22T04:17:44.273Z,22.37
2019-05-22T04:20:15.965Z,20.55
2019-05-22T04:22:44.445Z,22.22
2019-05-22T04:25:13.019Z,25.05
2019-05-22T04:27:42.216Z,24.32
2019-05-22T04:30:12.387Z,26.68
2019-05-22T04:32:43.688Z,25.72
2019-05-22T04:35:13.689Z,26.30
2019-05-22T04:37:42.439Z,21.73
2019-05-22T04:40:27.278Z,22.67
2019-05-22T04:42:59.511Z,24.75
2019-05-22T04:45:29.497Z,23.00
2019-05-22T04:47:58.791Z,21.82
2019-05-22T04:50:28.706Z,20.62
2019-05-22T04:52:57.412Z,22.00
2019-05-22T04:55:27.011Z,24.18
2019-05-22T05:10:36.121Z,19.02
2019-05-22T05:13:05.142Z,20.10
2019-05-22T05:15:37.034Z,21.33
2019-05-22T05:18:03.838Z,24.92
2019-05-22T05:20:32.525Z,22.10
2019-05-22T05:23:01.054Z,20.57
2019-05-22T05:25:29.657Z,24.63
2019-05-22T05:27:59.106Z,23.50
2019-05-22T05:30:29.268Z,22.85
2019-05-22T05:32:58.247Z,19.42
2019-05-22T05:35:26.887Z,22.27
2019-05-22T05:37:55.579Z,19.92
2019-05-22T05:40:34.834Z,18.73
2019-05-22T05:43:04.250Z,22.62
2019-05-22T05:45:33.227Z,18.62
2019-05-22T05:48:04.270Z,22.40
2019-05-22T05:50:39.534Z,22.52
2019-05-22T05:53:03.475Z,23.42
2019-05-22T05:56:00.971Z,20.30
2019-05-22T05:58:30.035Z,21.52
2019-05-22T06:14:00.359Z,26.80
2019-05-22T06:14:21.270Z,23.98
2019-05-22T06:20:17.118Z,22.73
2019-05-22T06:26:33.759Z,30.37
2019-05-22T06:33:08.028Z,32.90
2019-05-22T06:39:08.126Z,23.30
2019-05-22T06:45:05.826Z,21.93
2019-05-22T06:51:17.120Z,30.92
2019-05-22T06:57:01.872Z,41.83
2019-05-22T07:02:59.381Z,20.65
2019-05-22T07:08:56.917Z,23.75
2019-05-22T07:15:02.276Z,28.75
2019-05-22T07:20:59.929Z,26.15
2019-05-22T07:26:59.252Z,39.40
2019-05-22T07:32:56.842Z,35.03
2019-05-22T07:38:54.169Z,31.25
2019-05-22T07:44:51.127Z,21.40
2019-05-22T07:50:49.361Z,18.40
2019-05-22T07:56:45.876Z,20.00
2019-05-22T08:02:44.645Z,21.62
2019-05-22T08:08:42.994Z,21.33
2019-05-22T08:14:29.098Z,18.73
2019-05-22T08:20:01.911Z,20.10
2019-05-22T08:25:59.689Z,27.65
2019-05-22T08:31:56.794Z,21.68
2019-05-22T08:38:08.210Z,20.50
2019-05-22T08:44:18.431Z,24.25
2019-05-22T08:50:29.058Z,23.30
2019-05-22T08:56:38.698Z,33.55
2019-05-22T09:09:15.916Z,22.52
2019-05-22T09:18:54.367Z,18.62
2019-05-22T09:24:51.718Z,20.10
2019-05-22T09:30:24.930Z,17.75
2019-05-22T09:36:21.928Z,23.02
2019-05-22T09:42:19.813Z,20.57
2019-05-22T09:48:17.708Z,15.63
2019-05-22T09:54:14.815Z,15.30
2019-05-22T10:00:12.429Z,18.12
2019-05-22T10:06:11.309Z,19.55
2019-05-22T10:12:09.380Z,17.05
2019-05-22T10:18:06.155Z,18.02
2019-05-22T10:23:39.948Z,16.07
2019-05-22T10:29:37.681Z,15.43
2019-05-22T10:35:36.027Z,18.57
2019-05-22T10:41:34.072Z,22.13
2019-05-22T10:47:31.519Z,19.60
2019-05-22T10:53:33.588Z,19.48
2019-05-22T10:59:28.051Z,20.27
2019-05-22T11:05:25.611Z,20.97
2019-05-22T11:11:24.175Z,18.27
2019-05-22T11:17:21.064Z,16.45
2019-05-22T11:23:18.031Z,19.70
2019-05-22T11:29:16.866Z,20.30
2019-05-22T11:35:15.361Z,25.02
2019-05-22T11:41:12.719Z,17.30
2019-05-22T11:47:11.202Z,19.27
2019-05-22T11:53:08.402Z,20.88
2019-05-22T11:59:06.706Z,24.70
2019-05-22T12:01:35.374Z,21.05
2019-05-22T12:04:04.051Z,16.67
2019-05-22T12:06:33.209Z,19.17
2019-05-22T12:09:01.899Z,20.88
2019-05-22T12:11:30.711Z,20.68
2019-05-22T12:13:59.268Z,25.10
2019-05-22T12:16:28.441Z,20.25
2019-05-22T12:18:58.826Z,19.75
2019-05-22T12:21:27.552Z,19.30
2019-05-22T12:23:56.528Z,19.85
2019-05-22T12:26:25.366Z,23.90
2019-05-22T12:28:53.959Z,19.32
2019-05-22T12:31:23.483Z,21.30
2019-05-22T12:33:54.129Z,23.12
2019-05-22T12:36:23.706Z,26.60
2019-05-22T12:38:52.447Z,26.40
2019-05-22T12:41:21.434Z,24.40
2019-05-22T12:43:50.326Z,25.40
2019-05-22T12:46:19.923Z,30.37
2019-05-22T12:48:48.410Z,24.72
2019-05-22T12:51:17.103Z,26.52
2019-05-22T12:53:45.897Z,25.80
2019-05-22T12:56:15.020Z,23.18
2019-05-22T12:58:43.685Z,24.67
2019-05-22T13:01:12.196Z,19.80
2019-05-22T13:03:40.836Z,23.45
2019-05-22T13:06:10.201Z,28.42
2019-05-22T13:08:40.303Z,22.73
2019-05-22T13:11:08.835Z,21.20
2019-05-22T13:13:37.607Z,25.15
2019-05-22T13:16:07.689Z,21.05
2019-05-22T13:18:36.251Z,20.90
2019-05-22T13:21:05.383Z,23.70
2019-05-22T13:23:38.371Z,17.52
2019-05-22T13:26:09.489Z,18.12
2019-05-22T13:28:39.441Z,19.98
2019-05-22T13:31:08.861Z,22.50
2019-05-22T13:33:38.360Z,19.37
2019-05-22T13:36:07.289Z,17.92
2019-05-22T13:38:35.705Z,18.65
2019-05-22T13:41:04.319Z,20.85
2019-05-22T13:43:33.469Z,19.25
2019-05-22T13:46:02.009Z,18.45
2019-05-22T13:48:30.501Z,20.85
2019-05-22T13:51:00.107Z,30.37
2019-05-22T13:53:32.299Z,18.50
2019-05-22T13:56:01.413Z,21.07
2019-05-22T13:58:30.101Z,20.48
2019-05-22T14:01:00.580Z,18.67
2019-05-22T14:03:29.475Z,20.32
2019-05-22T14:05:58.887Z,20.20
2019-05-22T14:08:27.665Z,19.60
2019-05-22T14:10:56.418Z,19.32
2019-05-22T14:13:27.192Z,17.62
2019-05-22T14:15:57.278Z,21.85
2019-05-22T14:18:27.166Z,21.15
2019-05-22T14:20:55.672Z,23.95
2019-05-22T14:23:24.253Z,25.25
2019-05-22T14:25:53.146Z,22.75
2019-05-22T14:28:22.632Z,20.62
2019-05-22T14:30:51.269Z,20.23
2019-05-22T14:33:20.090Z,19.45
2019-05-22T14:35:49.679Z,24.60
2019-05-22T14:38:18.433Z,23.25
2019-05-22T14:40:46.947Z,20.82
2019-05-22T14:43:15.520Z,19.60
2019-05-22T14:45:44.910Z,18.95
2019-05-22T14:48:13.878Z,22.60
2019-05-22T14:50:42.389Z,20.65
2019-05-22T14:53:11.089Z,20.97
2019-05-22T14:55:40.449Z,22.60
2019-05-22T15:01:38.347Z,17.60
2019-05-22T15:07:35.713Z,20.43
2019-05-22T15:13:32.729Z,23.12
2019-05-22T15:19:30.687Z,25.68
2019-05-22T15:25:17.993Z,19.80
2019-05-22T15:31:15.559Z,22.17
2019-05-22T15:36:48.478Z,23.57
2019-05-22T15:42:45.872Z,73.35
2019-05-22T15:48:44.099Z,22.40
2019-05-22T15:54:41.709Z,20.57
2019-05-22T16:00:39.039Z,20.62
2019-05-22T16:06:48.888Z,21.55
2019-05-22T16:12:58.531Z,29.95
2019-05-22T16:18:58.105Z,27.52
2019-05-22T16:24:43.471Z,33.18
2019-05-22T16:30:19.580Z,29.25
2019-05-22T16:36:17.262Z,19.62
2019-05-22T16:42:14.063Z,24.20
2019-05-22T16:48:27.908Z,19.42
2019-05-22T16:54:12.188Z,17.95
2019-05-22T17:00:12.340Z,17.45
2019-05-22T17:06:10.271Z,22.55
2019-05-22T17:12:07.919Z,28.60
2019-05-22T17:18:06.393Z,23.40
2019-05-22T17:24:04.705Z,24.50
2019-05-22T17:26:34.198Z,20.62
2019-05-22T17:29:02.749Z,23.42
2019-05-22T17:31:31.264Z,20.23
2019-05-22T17:33:59.797Z,20.02
2019-05-22T17:36:29.033Z,19.52
2019-05-22T17:38:57.865Z,28.12
2019-05-22T17:41:27.914Z,31.65
2019-05-22T17:43:58.159Z,34.25
2019-05-22T17:46:27.544Z,34.30
2019-05-22T17:48:56.460Z,33.55
2019-05-22T17:51:25.057Z,34.70
2019-05-22T17:53:53.666Z,43.08
2019-05-22T17:56:29.852Z,41.05
2019-05-22T17:58:58.477Z,29.20
2019-05-22T18:01:27.861Z,27.82
2019-05-22T18:03:59.676Z,33.18
2019-05-22T18:06:28.269Z,27.00
2019-05-22T18:08:57.275Z,27.52
2019-05-22T18:11:26.149Z,26.75
2019-05-22T18:13:58.123Z,26.65
2019-05-22T18:16:27.830Z,23.20
2019-05-22T18:18:57.909Z,26.85
2019-05-22T18:21:26.504Z,24.90
2019-05-22T18:24:07.279Z,27.10
2019-05-22T18:26:36.242Z,26.20
2019-05-22T18:29:09.509Z,30.08
2019-05-22T18:31:38.197Z,33.83
2019-05-22T18:34:09.361Z,27.70
2019-05-22T18:36:38.151Z,26.15
2019-05-22T18:39:17.746Z,29.75
2019-05-22T18:41:56.475Z,29.98
2019-05-22T18:45:24.141Z,32.60
2019-05-22T18:47:53.235Z,29.85
2019-05-22T18:50:21.718Z,33.30
2019-05-22T18:52:51.270Z,33.45
2019-05-22T18:55:19.807Z,39.95
2019-05-22T18:57:48.407Z,65.47
2019-05-22T19:00:20.002Z,32.35
2019-05-22T19:02:48.500Z,29.48
2019-05-22T19:05:19.068Z,31.95
2019-05-22T19:07:48.607Z,29.70
2019-05-22T19:10:18.297Z,32.13
2019-05-22T19:12:49.329Z,37.30
2019-05-22T19:15:17.814Z,34.63
2019-05-22T19:17:46.362Z,32.17
2019-05-22T19:20:15.137Z,27.98
2019-05-22T19:22:58.417Z,23.30
2019-05-22T19:25:13.882Z,22.90
2019-05-22T19:27:42.358Z,22.80
2019-05-22T19:30:12.855Z,25.77
2019-05-22T19:32:45.157Z,28.70
2019-05-22T19:35:13.602Z,28.85
2019-05-22T19:37:42.119Z,28.00
2019-05-22T19:40:12.612Z,28.35
2019-05-22T19:42:41.212Z,29.10
2019-05-22T19:45:11.149Z,29.65
2019-05-22T19:47:42.968Z,31.17
2019-05-22T19:50:22.851Z,34.75
2019-05-22T19:52:42.183Z,28.83
2019-05-22T19:55:12.647Z,25.57
2019-05-22T19:57:41.590Z,30.30
2019-05-22T20:00:11.347Z,33.25
2019-05-22T20:02:41.154Z,31.07
2019-05-22T20:05:09.591Z,26.62
2019-05-22T20:07:38.558Z,27.93
2019-05-22T20:10:07.167Z,30.55
2019-05-22T20:12:36.892Z,27.27
2019-05-22T20:15:08.223Z,26.80
2019-05-22T20:17:37.573Z,28.77
2019-05-22T20:20:10.381Z,26.90
2019-05-22T20:22:39.266Z,26.82
2019-05-22T20:25:08.092Z,28.05
2019-05-22T20:27:36.821Z,27.25
2019-05-22T20:30:08.418Z,24.63
2019-05-22T20:32:37.536Z,29.23
2019-05-22T20:35:06.848Z,33.58
2019-05-22T20:37:36.171Z,29.07
2019-05-22T20:40:07.667Z,29.77
2019-05-22T20:42:36.908Z,31.10
2019-05-22T20:45:08.222Z,27.48
2019-05-22T20:47:39.394Z,27.00
2019-05-22T20:50:09.341Z,31.07
2019-05-22T20:52:38.279Z,28.30
2019-05-22T20:55:07.338Z,25.80
2019-05-22T20:57:35.837Z,29.00
2019-05-22T21:00:07.878Z,28.87
2019-05-22T21:02:37.384Z,28.35
2019-05-22T21:05:09.222Z,28.52
2019-05-22T21:07:39.800Z,32.48
2019-05-22T21:10:08.908Z,32.88
2019-05-22T21:12:37.977Z,33.40
2019-05-22T21:15:06.848Z,35.45
2019-05-22T21:17:37.049Z,34.83
2019-05-22T21:20:08.718Z,48.13
2019-05-22T21:22:37.658Z,40.08
2019-05-22T21:25:07.150Z,38.05
2019-05-22T21:34:20.606Z,33.45
2019-05-22T21:36:50.140Z,32.67
2019-05-22T21:39:19.021Z,37.65
2019-05-22T21:41:47.528Z,36.03
2019-05-22T21:44:15.960Z,35.43
2019-05-22T21:46:44.353Z,36.00
2019-05-22T21:49:14.392Z,39.53
2019-05-22T21:51:43.302Z,35.88
2019-05-22T21:54:13.373Z,46.20
2019-05-22T21:56:42.859Z,42.05
2019-05-22T21:59:11.249Z,42.83
2019-05-22T22:01:41.323Z,42.35
2019-05-22T22:04:20.727Z,41.95
2019-05-22T22:06:49.663Z,42.95
2019-05-22T22:09:19.738Z,42.58
2019-05-22T22:11:48.396Z,45.33
2019-05-22T22:14:17.842Z,47.83
2019-05-22T22:16:47.873Z,43.42
2019-05-22T22:19:18.275Z,44.30
2019-05-22T22:21:47.761Z,43.17
2019-05-22T22:24:16.377Z,46.50
2019-05-22T22:26:45.069Z,44.05
2019-05-22T22:29:13.903Z,40.00
2019-05-22T22:31:42.466Z,41.28
2019-05-22T22:34:17.546Z,40.67
2019-05-22T22:36:47.340Z,42.08
2019-05-22T22:39:17.378Z,39.90
2019-05-22T22:41:46.209Z,41.83
2019-05-22T22:44:14.844Z,43.23
2019-05-22T22:46:53.732Z,52.30
2019-05-22T22:49:23.797Z,49.13
2019-05-22T22:51:53.301Z,46.30
2019-05-22T22:54:22.380Z,49.40
2019-05-22T22:56:50.784Z,46.05
2019-05-22T22:59:19.438Z,43.75
2019-05-22T23:01:48.993Z,43.52
2019-05-22T23:04:18.751Z,41.68
2019-05-22T23:06:48.443Z,42.08
2019-05-22T23:09:18.525Z,41.70
2019-05-22T23:11:48.519Z,42.25
2019-05-22T23:14:17.593Z,41.37
2019-05-22T23:16:46.089Z,41.90
2019-05-22T23:19:18.130Z,42.75
2019-05-22T23:21:48.966Z,41.73
2019-05-22T23:24:19.144Z,41.68
2019-05-22T23:26:49.251Z,45.15
2019-05-22T23:29:18.712Z,40.80
2019-05-22T23:31:48.612Z,42.78
2019-05-22T23:34:17.011Z,42.35
2019-05-22T23:36:45.395Z,45.03
2019-05-22T23:39:15.173Z,41.77
2019-05-22T23:41:45.281Z,44.18
2019-05-22T23:44:14.124Z,42.55
2019-05-22T23:46:43.839Z,41.73
2019-05-22T23:49:12.717Z,42.20
2019-05-22T23:51:42.232Z,42.25
2019-05-22T23:54:10.786Z,41.33
2019-05-22T23:56:40.049Z,41.98
2019-05-22T23:59:08.441Z,41.70
